createdAt,value
2022-10-04T00:02:31.239Z,13.10
2022-10-04T00:07:38.183Z,13.20
2022-10-04T00:12:48.993Z,13.10
2022-10-04T00:18:06.170Z,13.10
2022-10-04T00:23:46.571Z,13.10
2022-10-04T00:28:50.228Z,13.20
2022-10-04T00:34:42.529Z,13.10
2022-10-04T00:39:47.264Z,13.10
2022-10-04T00:44:56.148Z,13.10
2022-10-04T00:50:13.147Z,13.10
2022-10-04T00:55:25.416Z,13.10
2022-10-04T01:00:31.424Z,13.10
2022-10-04T01:05:39.113Z,13.10
2022-10-04T01:10:47.469Z,13.10
2022-10-04T01:15:55.379Z,13.10
2022-10-04T01:21:04.001Z,12.90
2022-10-04T01:26:36.342Z,13.00
2022-10-04T01:31:42.193Z,12.90
2022-10-04T01:36:48.688Z,12.80
2022-10-04T01:41:56.716Z,12.90
2022-10-04T01:47:04.396Z,12.90
2022-10-04T01:52:15.284Z,12.90
2022-10-04T01:57:22.614Z,12.80
2022-10-04T02:02:33.796Z,12.90
2022-10-04T02:07:39.383Z,12.70
2022-10-04T02:12:44.696Z,12.60
2022-10-04T02:17:48.334Z,12.70
2022-10-04T02:22:56.453Z,12.70
2022-10-04T02:28:01.194Z,12.60
2022-10-04T02:33:04.666Z,12.30
2022-10-04T02:38:14.757Z,12.10
2022-10-04T02:43:25.757Z,11.80
2022-10-04T02:48:36.801Z,11.70
2022-10-04T02:53:50.560Z,11.40
2022-10-04T02:59:00.435Z,11.00
2022-10-04T03:04:04.125Z,11.10
2022-10-04T03:09:07.704Z,11.00
2022-10-04T03:14:16.361Z,10.60
2022-10-04T03:19:21.305Z,10.80
2022-10-04T03:24:32.991Z,10.40
2022-10-04T03:29:42.254Z,10.20
2022-10-04T03:56:38.520Z,10.60
2022-10-04T04:01:46.935Z,10.60
2022-10-04T04:07:01.242Z,10.50
2022-10-04T04:12:13.579Z,10.40
2022-10-04T04:17:35.923Z,10.40
2022-10-04T04:22:42.296Z,10.10
2022-10-04T04:27:50.291Z,9.90
2022-10-04T04:32:56.781Z,9.80
2022-10-04T04:38:13.799Z,10.10
2022-10-04T04:43:20.053Z,10.10
2022-10-04T04:48:23.497Z,10.30
2022-10-04T05:08:41.229Z,10.60
2022-10-04T05:13:48.529Z,10.80
2022-10-04T05:18:56.546Z,11.10
2022-10-04T05:54:10.774Z,12.00
2022-10-04T05:59:27.670Z,12.20
2022-10-04T06:04:46.103Z,12.30
2022-10-04T06:33:14.077Z,13.40
2022-10-04T06:38:46.197Z,13.30
2022-10-04T06:44:17.274Z,13.20
2022-10-04T06:49:34.841Z,13.30
2022-10-04T06:54:54.755Z,13.40
2022-10-04T07:00:10.251Z,13.50
2022-10-04T07:05:30.439Z,13.50
2022-10-04T07:10:40.254Z,13.60
2022-10-04T07:15:49.162Z,13.80
2022-10-04T07:21:03.399Z,14.10
2022-10-04T07:26:19.828Z,13.90
2022-10-04T07:31:28.155Z,14.10
2022-10-04T07:36:43.336Z,14.00
2022-10-04T07:41:51.867Z,14.20
2022-10-04T07:47:00.744Z,14.10
2022-10-04T07:52:27.948Z,14.20
2022-10-04T07:57:41.073Z,14.30
2022-10-04T08:02:54.533Z,14.40
2022-10-04T08:08:27.456Z,14.60
2022-10-04T08:13:38.976Z,15.80
2022-10-04T08:49:31.681Z,16.80
2022-10-04T08:55:05.848Z,17.20
2022-10-04T09:00:16.694Z,17.50
2022-10-04T09:05:46.534Z,17.20
2022-10-04T09:11:08.909Z,17.80
2022-10-04T09:16:17.702Z,18.30
2022-10-04T09:26:55.756Z,18.40
2022-10-04T09:32:49.149Z,17.90
2022-10-04T09:38:18.239Z,18.40
2022-10-04T09:44:10.759Z,18.40
2022-10-04T09:49:36.781Z,18.30
2022-10-04T09:55:10.245Z,18.70
2022-10-04T10:00:23.490Z,18.60
2022-10-04T10:05:35.496Z,18.30
2022-10-04T10:11:05.980Z,18.30
2022-10-04T10:16:41.066Z,18.10
2022-10-04T10:21:55.372Z,18.20
2022-10-04T10:27:37.846Z,18.40
2022-10-04T10:33:15.300Z,18.70
2022-10-04T10:38:40.248Z,18.70
2022-10-04T10:44:02.168Z,18.50
2022-10-04T10:49:26.171Z,18.70
2022-10-04T10:54:51.035Z,18.80
2022-10-04T11:00:20.132Z,18.90
2022-10-04T11:06:07.635Z,19.30
2022-10-04T11:11:37.521Z,19.00
2022-10-04T11:17:05.964Z,18.80
2022-10-04T11:22:51.794Z,18.40
2022-10-04T11:28:04.450Z,18.60
2022-10-04T11:33:40.966Z,19.00
2022-10-04T11:38:52.555Z,19.20
2022-10-04T11:44:18.296Z,18.90
2022-10-04T11:49:50.573Z,19.00
2022-10-04T11:55:31.267Z,19.00
2022-10-04T12:01:09.988Z,18.90
2022-10-04T12:06:23.435Z,20.30
2022-10-04T12:12:30.969Z,21.80
2022-10-04T12:18:07.848Z,21.30
2022-10-04T12:23:38.576Z,20.50
2022-10-04T12:29:10.252Z,21.20
2022-10-04T12:34:24.736Z,21.90
2022-10-04T12:39:38.911Z,21.60
2022-10-04T12:44:57.860Z,22.00
2022-10-04T12:50:12.833Z,21.30
2022-10-04T12:55:41.542Z,20.50
2022-10-04T13:00:48.040Z,20.50
2022-10-04T13:06:05.095Z,19.70
2022-10-04T13:11:35.400Z,19.70
2022-10-04T13:28:11.428Z,19.70
2022-10-04T13:40:45.030Z,20.10
2022-10-04T13:46:02.225Z,19.80
2022-10-04T13:58:28.962Z,20.00
2022-10-04T14:03:50.299Z,20.70
2022-10-04T14:09:35.825Z,20.90
2022-10-04T14:15:20.264Z,21.00
2022-10-04T14:20:55.891Z,20.90
2022-10-04T14:26:31.406Z,20.20
2022-10-04T14:32:06.531Z,20.20
2022-10-04T14:37:46.313Z,19.60
2022-10-04T14:43:13.867Z,18.70
2022-10-04T14:48:50.245Z,18.50
2022-10-04T14:54:00.811Z,18.30
2022-10-04T14:59:24.526Z,18.80
2022-10-04T15:04:35.995Z,18.30
2022-10-04T15:09:55.728Z,18.00
2022-10-04T15:15:24.192Z,18.20
2022-10-04T15:20:34.260Z,18.30
2022-10-04T15:25:41.364Z,17.90
2022-10-04T15:30:56.195Z,18.00
2022-10-04T15:36:49.723Z,17.70
2022-10-04T15:42:01.323Z,16.90
2022-10-04T15:47:15.521Z,16.40
2022-10-04T15:52:44.567Z,15.80
2022-10-04T15:58:16.886Z,15.40
2022-10-04T16:33:37.621Z,13.60
2022-10-04T16:39:06.918Z,13.10
2022-10-04T16:44:29.127Z,12.80
2022-10-04T16:49:47.982Z,12.60
2022-10-04T16:55:16.973Z,12.30
2022-10-04T17:00:35.205Z,12.20
2022-10-04T17:05:59.823Z,12.10
2022-10-04T17:11:36.310Z,11.90
2022-10-04T17:16:50.319Z,11.70
2022-10-04T17:22:06.971Z,11.60
2022-10-04T17:27:26.289Z,11.50
2022-10-04T17:32:40.902Z,11.40
2022-10-04T17:37:54.417Z,11.20
2022-10-04T17:43:05.250Z,11.10
2022-10-04T17:48:33.155Z,11.00
2022-10-04T17:54:00.779Z,11.00
2022-10-04T17:59:12.139Z,11.00
2022-10-04T18:04:19.098Z,10.90
2022-10-04T18:09:30.900Z,10.90
2022-10-04T18:14:57.243Z,10.70
2022-10-04T18:20:17.604Z,10.60
2022-10-04T18:25:26.191Z,10.60
2022-10-04T18:30:29.705Z,10.50
2022-10-04T18:35:34.737Z,10.70
2022-10-04T18:40:43.631Z,10.60
2022-10-04T18:46:02.223Z,10.60
2022-10-04T18:51:26.385Z,10.60
2022-10-04T18:56:36.228Z,10.60
2022-10-04T19:02:06.703Z,10.50
2022-10-04T19:07:13.456Z,10.50
2022-10-04T19:12:22.896Z,10.50
2022-10-04T19:17:32.435Z,10.40
2022-10-04T19:22:48.417Z,10.40
2022-10-04T19:28:00.875Z,10.50
2022-10-04T19:33:15.859Z,10.40
2022-10-04T19:38:38.722Z,10.50
2022-10-04T19:43:52.277Z,10.40
2022-10-04T19:48:55.939Z,10.30
2022-10-04T19:54:10.963Z,10.30
2022-10-04T19:59:28.156Z,10.20
2022-10-04T20:04:42.202Z,10.30
2022-10-04T20:09:55.607Z,10.30
2022-10-04T20:15:43.842Z,10.20
2022-10-04T20:21:09.238Z,10.20
2022-10-04T20:26:54.270Z,10.20
2022-10-04T20:31:59.668Z,10.10
2022-10-04T20:37:04.296Z,10.00
2022-10-04T20:42:19.834Z,10.00
2022-10-04T20:47:46.667Z,9.90
2022-10-04T20:52:53.535Z,9.90
2022-10-04T20:58:00.317Z,10.10
2022-10-04T21:03:13.186Z,10.10
2022-10-04T21:08:27.277Z,10.00
2022-10-04T21:13:42.827Z,10.10
2022-10-04T21:18:48.131Z,10.10
2022-10-04T21:23:52.331Z,10.20
2022-10-04T21:29:01.722Z,10.50
2022-10-04T21:34:06.968Z,10.70
2022-10-04T21:39:11.480Z,10.70
2022-10-04T21:44:15.336Z,10.80
2022-10-04T21:49:20.082Z,10.70
2022-10-04T21:54:24.302Z,10.70
2022-10-04T21:59:28.057Z,10.60
2022-10-04T22:04:32.855Z,10.50
2022-10-04T22:09:36.560Z,10.50
2022-10-04T22:14:39.863Z,10.50
2022-10-04T22:19:44.581Z,10.40
2022-10-04T22:24:48.041Z,10.30
2022-10-04T22:29:55.200Z,10.10
2022-10-04T22:35:09.443Z,10.10
2022-10-04T22:40:17.031Z,10.00
2022-10-04T22:45:23.683Z,9.80
2022-10-04T22:50:31.631Z,9.70
2022-10-04T22:55:35.674Z,9.50
2022-10-04T23:00:39.018Z,9.30
2022-10-04T23:05:44.349Z,9.20
2022-10-04T23:10:47.815Z,9.10
2022-10-04T23:15:51.268Z,9.10
2022-10-04T23:20:59.394Z,8.90
2022-10-04T23:26:02.493Z,8.90
2022-10-04T23:31:15.764Z,8.80
2022-10-04T23:36:20.744Z,8.90
2022-10-04T23:41:23.884Z,8.80
2022-10-04T23:46:29.892Z,8.80
2022-10-04T23:51:34.670Z,8.70
2022-10-04T23:56:37.865Z,8.60
